»·PEaware :: N35CF KGWS-KLND

N35CF :: KGWS-KLND

FLIGHT INFORMATION

Flight Status: Arrived
Operator: Privately registered:
United States
More flights under this callsign
Pilot: Anonymous 18613 (18613)
Aircraft: BEECH AIRCRAFT A90-E90 KING AIR
(BE9L)
More flights by this aircraft type
Origin: KGWS Glenwood Springs Mun
United States
Destination: KLND Hunt
United States
More flights between these airports :: More routes between these airports
Route: +
File this flight plan on PilotEdge
Remarks:
Altitude:
(Current/Filed)
14,500ft
Speed:
(Current/Filed)
0kts
Departed: 16-May-18 09:38 AM
Arrived: 16-May-18 10:40 AM
Distance/Time
Traveled:
209nm/1:02
Distance/Time
To Go:
Arrived

Flight Plot

Page will automatically refresh every two minutes.

Flight plan parsing failed; only flown route is shown


Map Options




Map Legend


Flown Route
Filed Route
Departure Airport
Arrival Airport
Navaid (VOR, NDB)
Fix

Horizontal Profiles

Position Reports

Time Latitude Longitude Heading Altitude Ground
Speed
16-May-18 09:37 39.501667 -107.207657 336 14717ft 210kts
16-May-18 09:38 39.556993 -107.231753 336 14719ft 210kts
16-May-18 09:39 39.612642 -107.256038 336 14619ft 216kts
16-May-18 09:40 39.669553 -107.280897 336 14526ft 214kts
16-May-18 09:41 39.725539 -107.305410 336 14518ft 212kts
16-May-18 09:42 39.781277 -107.329855 336 14509ft 211kts
16-May-18 09:43 39.837035 -107.354350 336 14500ft 211kts
16-May-18 09:44 39.892778 -107.378879 336 14483ft 212kts
16-May-18 09:45 39.948255 -107.403333 336 14467ft 212kts
16-May-18 09:46 40.004140 -107.428010 336 14457ft 212kts
16-May-18 09:47 40.059478 -107.452488 336 14453ft 211kts
16-May-18 09:48 40.113799 -107.476555 336 14448ft 211kts
16-May-18 09:49 40.169305 -107.501188 336 14445ft 211kts
16-May-18 09:50 40.224696 -107.525815 336 14442ft 210kts
16-May-18 09:51 40.281016 -107.550907 337 14444ft 221kts
16-May-18 09:52 40.340112 -107.577262 337 14443ft 227kts
16-May-18 09:53 40.399933 -107.603997 337 14443ft 228kts
16-May-18 09:54 40.459941 -107.630870 337 14443ft 228kts
16-May-18 09:55 40.515040 -107.655590 336 14445ft 228kts
16-May-18 09:56 40.575203 -107.682633 336 14446ft 229kts
16-May-18 09:57 40.635406 -107.709744 336 14446ft 229kts
16-May-18 09:58 40.695598 -107.736903 336 14451ft 229kts
16-May-18 09:59 40.755630 -107.764041 336 14458ft 229kts
16-May-18 10:00 40.815661 -107.791231 336 14528ft 227kts
16-May-18 10:01 40.875520 -107.818395 336 14529ft 229kts
16-May-18 10:02 40.935567 -107.845697 336 14523ft 229kts
16-May-18 10:03 40.995828 -107.873163 337 14520ft 229kts
16-May-18 10:04 41.055861 -107.900568 338 14519ft 228kts
16-May-18 10:05 41.113226 -107.926801 339 14518ft 226kts
16-May-18 10:06 41.172459 -107.953920 339 14517ft 225kts
16-May-18 10:07 41.231529 -107.981033 339 14517ft 225kts
16-May-18 10:08 41.290488 -108.008149 339 14517ft 224kts
16-May-18 10:09 41.349484 -108.035333 339 14517ft 224kts
16-May-18 10:10 41.386923 -108.052612 339 14516ft 225kts
16-May-18 10:11 41.446056 -108.079945 339 14515ft 225kts
16-May-18 10:12 41.504962 -108.107226 339 14523ft 224kts
16-May-18 10:13 41.563775 -108.134517 339 14522ft 224kts
16-May-18 10:14 41.622812 -108.161965 339 14520ft 225kts
16-May-18 10:15 41.681817 -108.189451 339 14518ft 225kts
16-May-18 10:16 41.740739 -108.216952 339 14517ft 225kts
16-May-18 10:17 41.799517 -108.244439 339 14518ft 225kts
16-May-18 10:18 41.858380 -108.272019 339 14518ft 225kts
16-May-18 10:19 41.917280 -108.299671 339 14518ft 225kts
16-May-18 10:20 41.976502 -108.327529 339 14499ft 225kts
16-May-18 10:21 42.035488 -108.355330 339 14482ft 225kts
16-May-18 10:22 42.096593 -108.384183 339 13995ft 237kts
16-May-18 10:23 42.154966 -108.414222 336 13957ft 228kts
16-May-18 10:24 42.213107 -108.446606 336 13935ft 226kts
16-May-18 10:25 42.270783 -108.478716 336 13912ft 216kts
16-May-18 10:26 42.322241 -108.507111 336 13914ft 188kts
16-May-18 10:27 42.369210 -108.532837 336 13916ft 179kts
16-May-18 10:28 42.415070 -108.557898 336 13917ft 180kts
16-May-18 10:29 42.465144 -108.585453 336 13920ft 210kts
16-May-18 10:30 42.511567 -108.611205 336 13917ft 220kts
16-May-18 10:31 42.568398 -108.642787 336 13917ft 220kts
16-May-18 10:32 42.622178 -108.673000 336 12350ft 206kts
16-May-18 10:33 42.669402 -108.699820 336 10556ft 156kts
16-May-18 10:34 42.701409 -108.727788 319 8911ft 121kts
16-May-18 10:35 42.725244 -108.755891 319 8058ft 112kts
16-May-18 10:36 42.743600 -108.785314 330 7125ft 99kts
16-May-18 10:37 42.770824 -108.772243 0 6563ft 103kts
16-May-18 10:38 42.797641 -108.757205 40 6084ft 107kts
16-May-18 10:39 42.815562 -108.728259 52 5588ft 57kts
16-May-18 10:40 42.817245 -108.727734 323 5588ft 0kts
16-May-18 10:41 42.817245 -108.727734 323 5588ft 0kts
16-May-18 10:42 42.817245 -108.727734 323 5588ft 0kts
16-May-18 10:43 42.817245 -108.727734 323 5588ft 0kts

Navigation Log

Ident Type
Flight plan parsing failed, navigation log unavailable